sensor_id;sensor_type;location;lat;lon;timestamp;P1;durP1;ratioP1;P2;durP2;ratioP2
49812;SDS011;35706;52.100;5.056;2022-12-10T00:00:21;140.80;;;58.20;;
49812;SDS011;35706;52.100;5.056;2022-12-10T00:01:22;186.97;;;80.37;;
49812;SDS011;35706;52.100;5.056;2022-12-10T00:02:23;135.10;;;53.35;;
49812;SDS011;35706;52.100;5.056;2022-12-10T00:03:24;95.70;;;35.50;;
49812;SDS011;35706;52.100;5.056;2022-12-10T00:04:24;94.33;;;33.83;;
49812;SDS011;35706;52.100;5.056;2022-12-10T00:05:24;89.00;;;33.90;;
49812;SDS011;35706;52.100;5.056;2022-12-10T00:06:26;85.67;;;33.40;;
49812;SDS011;35706;52.100;5.056;2022-12-10T00:07:28;86.20;;;32.47;;
49812;SDS011;35706;52.100;5.056;2022-12-10T00:08:28;95.07;;;34.83;;
49812;SDS011;35706;52.100;5.056;2022-12-10T00:09:29;87.50;;;33.00;;
49812;SDS011;35706;52.100;5.056;2022-12-10T00:10:29;96.67;;;33.97;;
49812;SDS011;35706;52.100;5.056;2022-12-10T00:11:30;97.00;;;34.00;;
49812;SDS011;35706;52.100;5.056;2022-12-10T00:12:31;91.60;;;31.33;;
49812;SDS011;35706;52.100;5.056;2022-12-10T00:13:32;86.93;;;33.03;;
49812;SDS011;35706;52.100;5.056;2022-12-10T00:14:33;94.25;;;32.42;;
49812;SDS011;35706;52.100;5.056;2022-12-10T00:15:36;93.80;;;33.13;;
49812;SDS011;35706;52.100;5.056;2022-12-10T00:16:36;91.82;;;32.53;;
49812;SDS011;35706;52.100;5.056;2022-12-10T00:17:37;88.00;;;32.90;;
49812;SDS011;35706;52.100;5.056;2022-12-10T00:18:37;85.27;;;31.10;;
49812;SDS011;35706;52.100;5.056;2022-12-10T00:19:38;88.27;;;32.97;;
49812;SDS011;35706;52.100;5.056;2022-12-10T00:20:38;87.67;;;32.17;;
49812;SDS011;35706;52.100;5.056;2022-12-10T00:21:38;91.43;;;31.83;;
49812;SDS011;35706;52.100;5.056;2022-12-10T00:22:39;92.70;;;31.67;;
49812;SDS011;35706;52.100;5.056;2022-12-10T00:23:39;92.63;;;33.73;;
49812;SDS011;35706;52.100;5.056;2022-12-10T00:24:40;88.50;;;32.67;;
49812;SDS011;35706;52.100;5.056;2022-12-10T00:25:40;92.27;;;33.23;;
49812;SDS011;35706;52.100;5.056;2022-12-10T00:26:40;93.93;;;31.03;;
49812;SDS011;35706;52.100;5.056;2022-12-10T00:27:41;92.43;;;31.23;;
49812;SDS011;35706;52.100;5.056;2022-12-10T00:28:42;93.90;;;32.83;;
49812;SDS011;35706;52.100;5.056;2022-12-10T00:29:43;87.07;;;30.48;;
49812;SDS011;35706;52.100;5.056;2022-12-10T00:30:43;98.30;;;32.67;;
49812;SDS011;35706;52.100;5.056;2022-12-10T00:31:44;94.03;;;31.30;;
49812;SDS011;35706;52.100;5.056;2022-12-10T00:32:44;97.53;;;32.43;;
49812;SDS011;35706;52.100;5.056;2022-12-10T00:33:45;106.27;;;28.93;;
49812;SDS011;35706;52.100;5.056;2022-12-10T00:34:46;103.97;;;31.90;;
49812;SDS011;35706;52.100;5.056;2022-12-10T00:35:46;94.33;;;31.57;;
49812;SDS011;35706;52.100;5.056;2022-12-10T00:36:47;102.20;;;32.60;;
49812;SDS011;35706;52.100;5.056;2022-12-10T00:37:49;114.85;;;31.65;;
49812;SDS011;35706;52.100;5.056;2022-12-10T00:38:49;111.90;;;32.93;;
49812;SDS011;35706;52.100;5.056;2022-12-10T00:39:50;97.57;;;32.67;;
49812;SDS011;35706;52.100;5.056;2022-12-10T00:40:50;112.77;;;33.20;;
49812;SDS011;35706;52.100;5.056;2022-12-10T00:41:50;116.37;;;34.47;;
49812;SDS011;35706;52.100;5.056;2022-12-10T00:42:51;115.67;;;33.63;;
49812;SDS011;35706;52.100;5.056;2022-12-10T00:43:51;144.90;;;32.00;;
49812;SDS011;35706;52.100;5.056;2022-12-10T00:44:51;159.47;;;33.30;;
49812;SDS011;35706;52.100;5.056;2022-12-10T00:45:52;113.50;;;32.90;;
49812;SDS011;35706;52.100;5.056;2022-12-10T00:46:53;166.93;;;32.43;;
49812;SDS011;35706;52.100;5.056;2022-12-10T00:47:53;100.93;;;31.90;;
49812;SDS011;35706;52.100;5.056;2022-12-10T00:48:53;141.70;;;31.90;;
49812;SDS011;35706;52.100;5.056;2022-12-10T00:49:54;114.37;;;33.00;;
49812;SDS011;35706;52.100;5.056;2022-12-10T00:50:55;154.97;;;33.80;;
49812;SDS011;35706;52.100;5.056;2022-12-10T00:51:56;234.05;;;35.50;;
49812;SDS011;35706;52.100;5.056;2022-12-10T00:52:57;179.50;;;31.33;;
49812;SDS011;35706;52.100;5.056;2022-12-10T00:53:58;131.57;;;32.53;;
49812;SDS011;35706;52.100;5.056;2022-12-10T00:54:58;172.30;;;33.42;;
49812;SDS011;35706;52.100;5.056;2022-12-10T00:55:59;144.53;;;31.43;;
49812;SDS011;35706;52.100;5.056;2022-12-10T00:57:00;190.75;;;33.33;;
49812;SDS011;35706;52.100;5.056;2022-12-10T00:58:00;154.63;;;31.70;;
49812;SDS011;35706;52.100;5.056;2022-12-10T00:59:01;211.40;;;33.37;;
49812;SDS011;35706;52.100;5.056;2022-12-10T01:00:02;333.98;;;38.42;;
49812;SDS011;35706;52.100;5.056;2022-12-10T01:02:20;170.40;;;33.38;;
49812;SDS011;35706;52.100;5.056;2022-12-10T01:03:21;226.70;;;33.67;;
49812;SDS011;35706;52.100;5.056;2022-12-10T01:04:21;201.47;;;34.33;;
49812;SDS011;35706;52.100;5.056;2022-12-10T01:05:21;130.60;;;32.93;;
49812;SDS011;35706;52.100;5.056;2022-12-10T01:06:42;126.63;;;32.80;;
49812;SDS011;35706;52.100;5.056;2022-12-10T01:07:50;250.83;;;32.73;;
49812;SDS011;35706;52.100;5.056;2022-12-10T01:08:53;133.40;;;31.70;;
49812;SDS011;35706;52.100;5.056;2022-12-10T01:09:55;208.07;;;34.55;;
49812;SDS011;35706;52.100;5.056;2022-12-10T01:10:55;245.87;;;33.03;;
49812;SDS011;35706;52.100;5.056;2022-12-10T01:11:57;219.03;;;35.03;;
49812;SDS011;35706;52.100;5.056;2022-12-10T01:13:01;177.10;;;33.95;;
49812;SDS011;35706;52.100;5.056;2022-12-10T01:14:01;220.10;;;35.07;;
49812;SDS011;35706;52.100;5.056;2022-12-10T01:15:02;153.77;;;32.90;;
49812;SDS011;35706;52.100;5.056;2022-12-10T01:16:03;188.80;;;32.97;;
49812;SDS011;35706;52.100;5.056;2022-12-10T01:17:04;170.82;;;33.40;;
49812;SDS011;35706;52.100;5.056;2022-12-10T01:18:05;199.50;;;34.50;;
49812;SDS011;35706;52.100;5.056;2022-12-10T01:19:06;237.97;;;37.63;;
49812;SDS011;35706;52.100;5.056;2022-12-10T01:20:06;236.70;;;38.63;;
49812;SDS011;35706;52.100;5.056;2022-12-10T01:21:08;150.80;;;35.23;;
49812;SDS011;35706;52.100;5.056;2022-12-10T01:22:16;129.38;;;32.45;;
49812;SDS011;35706;52.100;5.056;2022-12-10T01:23:16;195.53;;;34.50;;
49812;SDS011;35706;52.100;5.056;2022-12-10T01:24:16;171.20;;;36.43;;
49812;SDS011;35706;52.100;5.056;2022-12-10T01:25:17;194.40;;;36.03;;
49812;SDS011;35706;52.100;5.056;2022-12-10T01:26:18;308.83;;;40.80;;
49812;SDS011;35706;52.100;5.056;2022-12-10T01:27:21;154.20;;;36.00;;
49812;SDS011;35706;52.100;5.056;2022-12-10T01:28:21;153.00;;;36.57;;
49812;SDS011;35706;52.100;5.056;2022-12-10T01:29:22;251.80;;;38.80;;
49812;SDS011;35706;52.100;5.056;2022-12-10T01:30:22;302.00;;;39.87;;
49812;SDS011;35706;52.100;5.056;2022-12-10T01:31:23;137.37;;;34.93;;
49812;SDS011;35706;52.100;5.056;2022-12-10T01:32:31;157.35;;;37.05;;
49812;SDS011;35706;52.100;5.056;2022-12-10T01:33:31;179.00;;;36.70;;
49812;SDS011;35706;52.100;5.056;2022-12-10T01:34:33;117.88;;;34.13;;
49812;SDS011;35706;52.100;5.056;2022-12-10T01:35:35;218.80;;;39.23;;
49812;SDS011;35706;52.100;5.056;2022-12-10T01:36:38;209.98;;;36.95;;
49812;SDS011;35706;52.100;5.056;2022-12-10T01:37:41;225.13;;;39.03;;
49812;SDS011;35706;52.100;5.056;2022-12-10T01:38:41;213.90;;;38.67;;
49812;SDS011;35706;52.100;5.056;2022-12-10T01:39:42;198.23;;;38.40;;
49812;SDS011;35706;52.100;5.056;2022-12-10T01:40:42;131.73;;;37.33;;
49812;SDS011;35706;52.100;5.056;2022-12-10T01:41:44;151.73;;;38.53;;
49812;SDS011;35706;52.100;5.056;2022-12-10T01:42:47;127.47;;;36.05;;
49812;SDS011;35706;52.100;5.056;2022-12-10T01:45:10;156.00;;;36.88;;
49812;SDS011;35706;52.100;5.056;2022-12-10T01:46:12;175.52;;;37.45;;
49812;SDS011;35706;52.100;5.056;2022-12-10T01:47:12;172.97;;;38.13;;
49812;SDS011;35706;52.100;5.056;2022-12-10T01:48:12;204.43;;;36.73;;
49812;SDS011;35706;52.100;5.056;2022-12-10T01:49:14;172.03;;;36.63;;
49812;SDS011;35706;52.100;5.056;2022-12-10T01:50:17;231.90;;;36.92;;
49812;SDS011;35706;52.100;5.056;2022-12-10T01:51:17;183.47;;;38.03;;
49812;SDS011;35706;52.100;5.056;2022-12-10T01:52:18;195.52;;;37.50;;
49812;SDS011;35706;52.100;5.056;2022-12-10T01:53:19;210.03;;;38.37;;
49812;SDS011;35706;52.100;5.056;2022-12-10T01:54:24;257.27;;;41.57;;
49812;SDS011;35706;52.100;5.056;2022-12-10T01:56:47;264.73;;;37.13;;
49812;SDS011;35706;52.100;5.056;2022-12-10T01:57:57;206.20;;;37.95;;
49812;SDS011;35706;52.100;5.056;2022-12-10T01:58:58;218.87;;;41.07;;
49812;SDS011;35706;52.100;5.056;2022-12-10T01:59:59;212.03;;;39.07;;
49812;SDS011;35706;52.100;5.056;2022-12-10T02:02:28;167.30;;;39.13;;
49812;SDS011;35706;52.100;5.056;2022-12-10T02:06:04;188.93;;;38.80;;
49812;SDS011;35706;52.100;5.056;2022-12-10T02:11:36;207.20;;;37.22;;
49812;SDS011;35706;52.100;5.056;2022-12-10T02:12:44;164.30;;;37.58;;
49812;SDS011;35706;52.100;5.056;2022-12-10T02:13:54;255.48;;;40.58;;
49812;SDS011;35706;52.100;5.056;2022-12-10T02:15:02;188.65;;;36.95;;
49812;SDS011;35706;52.100;5.056;2022-12-10T02:16:12;187.90;;;37.20;;
49812;SDS011;35706;52.100;5.056;2022-12-10T02:17:17;182.38;;;37.78;;
49812;SDS011;35706;52.100;5.056;2022-12-10T02:18:25;177.10;;;40.17;;
49812;SDS011;35706;52.100;5.056;2022-12-10T02:19:41;191.30;;;38.80;;
49812;SDS011;35706;52.100;5.056;2022-12-10T02:20:45;236.40;;;41.60;;
49812;SDS011;35706;52.100;5.056;2022-12-10T02:21:50;313.10;;;43.08;;
49812;SDS011;35706;52.100;5.056;2022-12-10T02:22:56;176.73;;;39.88;;
49812;SDS011;35706;52.100;5.056;2022-12-10T02:24:03;127.25;;;30.88;;
49812;SDS011;35706;52.100;5.056;2022-12-10T02:25:07;203.18;;;40.08;;
49812;SDS011;35706;52.100;5.056;2022-12-10T02:29:11;214.23;;;39.30;;
49812;SDS011;35706;52.100;5.056;2022-12-10T02:30:20;259.70;;;41.70;;
49812;SDS011;35706;52.100;5.056;2022-12-10T02:31:22;185.30;;;41.17;;
49812;SDS011;35706;52.100;5.056;2022-12-10T02:32:33;190.50;;;41.28;;
49812;SDS011;35706;52.100;5.056;2022-12-10T02:33:39;289.73;;;43.35;;
49812;SDS011;35706;52.100;5.056;2022-12-10T02:34:45;279.70;;;42.15;;
49812;SDS011;35706;52.100;5.056;2022-12-10T02:35:49;314.77;;;43.40;;
49812;SDS011;35706;52.100;5.056;2022-12-10T02:36:51;325.67;;;43.28;;
49812;SDS011;35706;52.100;5.056;2022-12-10T02:38:01;276.00;;;43.33;;
49812;SDS011;35706;52.100;5.056;2022-12-10T02:39:10;422.17;;;45.95;;
49812;SDS011;35706;52.100;5.056;2022-12-10T02:40:19;246.98;;;41.53;;
49812;SDS011;35706;52.100;5.056;2022-12-10T02:41:26;358.08;;;48.20;;
49812;SDS011;35706;52.100;5.056;2022-12-10T02:42:31;346.52;;;44.83;;
49812;SDS011;35706;52.100;5.056;2022-12-10T02:43:35;263.92;;;44.72;;
49812;SDS011;35706;52.100;5.056;2022-12-10T02:44:36;342.43;;;45.30;;
49812;SDS011;35706;52.100;5.056;2022-12-10T02:45:40;402.85;;;49.17;;
49812;SDS011;35706;52.100;5.056;2022-12-10T02:46:42;174.57;;;42.13;;
49812;SDS011;35706;52.100;5.056;2022-12-10T02:47:45;299.58;;;46.65;;
49812;SDS011;35706;52.100;5.056;2022-12-10T02:48:47;190.60;;;43.53;;
49812;SDS011;35706;52.100;5.056;2022-12-10T02:49:50;172.18;;;43.95;;
49812;SDS011;35706;52.100;5.056;2022-12-10T02:50:53;170.48;;;44.00;;
49812;SDS011;35706;52.100;5.056;2022-12-10T02:51:53;409.40;;;48.80;;
49812;SDS011;35706;52.100;5.056;2022-12-10T02:52:54;329.53;;;47.90;;
49812;SDS011;35706;52.100;5.056;2022-12-10T02:53:58;539.37;;;55.53;;
49812;SDS011;35706;52.100;5.056;2022-12-10T02:55:02;468.00;;;51.15;;
49812;SDS011;35706;52.100;5.056;2022-12-10T03:00:23;222.15;;;45.45;;
49812;SDS011;35706;52.100;5.056;2022-12-10T03:02:31;191.82;;;44.33;;
49812;SDS011;35706;52.100;5.056;2022-12-10T03:06:32;196.75;;;38.22;;
49812;SDS011;35706;52.100;5.056;2022-12-10T03:07:47;295.00;;;40.22;;
49812;SDS011;35706;52.100;5.056;2022-12-10T03:09:05;361.40;;;43.13;;
49812;SDS011;35706;52.100;5.056;2022-12-10T03:10:33;320.40;;;40.92;;
49812;SDS011;35706;52.100;5.056;2022-12-10T03:11:33;188.00;;;38.08;;
49812;SDS011;35706;52.100;5.056;2022-12-10T03:12:41;139.37;;;37.07;;
49812;SDS011;35706;52.100;5.056;2022-12-10T03:13:57;299.90;;;40.53;;
49812;SDS011;35706;52.100;5.056;2022-12-10T03:15:01;242.88;;;40.25;;
49812;SDS011;35706;52.100;5.056;2022-12-10T03:16:05;264.25;;;40.08;;
49812;SDS011;35706;52.100;5.056;2022-12-10T03:17:06;264.30;;;40.78;;
49812;SDS011;35706;52.100;5.056;2022-12-10T03:18:08;338.67;;;42.95;;
49812;SDS011;35706;52.100;5.056;2022-12-10T03:19:11;404.33;;;43.95;;
49812;SDS011;35706;52.100;5.056;2022-12-10T03:20:14;355.52;;;42.58;;
49812;SDS011;35706;52.100;5.056;2022-12-10T03:21:16;257.52;;;40.08;;
49812;SDS011;35706;52.100;5.056;2022-12-10T03:22:18;329.33;;;41.70;;
49812;SDS011;35706;52.100;5.056;2022-12-10T03:23:20;298.75;;;42.65;;
49812;SDS011;35706;52.100;5.056;2022-12-10T03:24:20;415.23;;;46.33;;
49812;SDS011;35706;52.100;5.056;2022-12-10T03:25:23;156.77;;;39.03;;
49812;SDS011;35706;52.100;5.056;2022-12-10T03:26:26;280.95;;;44.90;;
49812;SDS011;35706;52.100;5.056;2022-12-10T03:27:27;212.73;;;41.07;;
49812;SDS011;35706;52.100;5.056;2022-12-10T03:28:30;431.30;;;46.90;;
49812;SDS011;35706;52.100;5.056;2022-12-10T03:29:35;332.10;;;44.08;;
49812;SDS011;35706;52.100;5.056;2022-12-10T03:30:39;260.15;;;42.85;;
49812;SDS011;35706;52.100;5.056;2022-12-10T03:31:42;185.90;;;41.83;;
49812;SDS011;35706;52.100;5.056;2022-12-10T03:32:43;177.30;;;41.90;;
49812;SDS011;35706;52.100;5.056;2022-12-10T03:33:45;433.20;;;48.42;;
49812;SDS011;35706;52.100;5.056;2022-12-10T03:34:47;234.93;;;38.78;;
49812;SDS011;35706;52.100;5.056;2022-12-10T03:35:50;218.80;;;39.47;;
49812;SDS011;35706;52.100;5.056;2022-12-10T03:36:51;265.07;;;39.33;;
49812;SDS011;35706;52.100;5.056;2022-12-10T03:37:52;283.00;;;40.60;;
49812;SDS011;35706;52.100;5.056;2022-12-10T03:38:53;232.77;;;39.13;;
49812;SDS011;35706;52.100;5.056;2022-12-10T03:39:53;164.60;;;39.40;;
49812;SDS011;35706;52.100;5.056;2022-12-10T03:40:55;261.10;;;40.60;;
49812;SDS011;35706;52.100;5.056;2022-12-10T03:41:56;233.80;;;39.17;;
49812;SDS011;35706;52.100;5.056;2022-12-10T03:42:56;286.30;;;42.30;;
49812;SDS011;35706;52.100;5.056;2022-12-10T03:43:58;346.50;;;40.97;;
49812;SDS011;35706;52.100;5.056;2022-12-10T03:44:59;354.02;;;44.55;;
49812;SDS011;35706;52.100;5.056;2022-12-10T03:45:59;171.10;;;37.63;;
49812;SDS011;35706;52.100;5.056;2022-12-10T03:47:00;175.33;;;41.70;;
49812;SDS011;35706;52.100;5.056;2022-12-10T03:48:02;357.92;;;43.17;;
49812;SDS011;35706;52.100;5.056;2022-12-10T03:49:02;280.27;;;42.90;;
49812;SDS011;35706;52.100;5.056;2022-12-10T03:50:03;296.83;;;41.80;;
49812;SDS011;35706;52.100;5.056;2022-12-10T03:51:04;206.77;;;38.07;;
49812;SDS011;35706;52.100;5.056;2022-12-10T03:52:05;128.97;;;37.67;;
49812;SDS011;35706;52.100;5.056;2022-12-10T03:53:05;165.57;;;40.97;;
49812;SDS011;35706;52.100;5.056;2022-12-10T03:54:05;329.70;;;45.03;;
49812;SDS011;35706;52.100;5.056;2022-12-10T03:55:05;184.43;;;42.53;;
49812;SDS011;35706;52.100;5.056;2022-12-10T03:56:06;365.43;;;46.17;;
49812;SDS011;35706;52.100;5.056;2022-12-10T03:57:07;435.13;;;45.27;;
49812;SDS011;35706;52.100;5.056;2022-12-10T03:58:07;226.23;;;41.17;;
49812;SDS011;35706;52.100;5.056;2022-12-10T03:59:08;322.30;;;45.00;;
49812;SDS011;35706;52.100;5.056;2022-12-10T04:00:09;306.30;;;45.37;;
49812;SDS011;35706;52.100;5.056;2022-12-10T04:01:10;472.95;;;49.08;;
49812;SDS011;35706;52.100;5.056;2022-12-10T04:02:10;180.77;;;43.87;;
49812;SDS011;35706;52.100;5.056;2022-12-10T04:03:10;257.73;;;43.70;;
49812;SDS011;35706;52.100;5.056;2022-12-10T04:04:11;292.60;;;46.47;;
49812;SDS011;35706;52.100;5.056;2022-12-10T04:05:11;184.77;;;44.40;;
49812;SDS011;35706;52.100;5.056;2022-12-10T04:06:16;198.83;;;44.00;;
49812;SDS011;35706;52.100;5.056;2022-12-10T04:07:18;349.42;;;47.83;;
49812;SDS011;35706;52.100;5.056;2022-12-10T04:08:18;330.40;;;47.07;;
49812;SDS011;35706;52.100;5.056;2022-12-10T04:09:19;307.67;;;44.57;;
49812;SDS011;35706;52.100;5.056;2022-12-10T04:10:19;330.80;;;45.50;;
49812;SDS011;35706;52.100;5.056;2022-12-10T04:11:19;503.57;;;49.40;;
49812;SDS011;35706;52.100;5.056;2022-12-10T04:12:20;158.17;;;41.03;;
49812;SDS011;35706;52.100;5.056;2022-12-10T04:13:20;173.47;;;40.57;;
49812;SDS011;35706;52.100;5.056;2022-12-10T04:14:39;180.40;;;41.72;;
49812;SDS011;35706;52.100;5.056;2022-12-10T04:15:58;343.15;;;45.45;;
49812;SDS011;35706;52.100;5.056;2022-12-10T04:17:17;539.20;;;48.33;;
49812;SDS011;35706;52.100;5.056;2022-12-10T04:18:18;376.73;;;45.50;;
49812;SDS011;35706;52.100;5.056;2022-12-10T04:19:18;299.17;;;41.53;;
49812;SDS011;35706;52.100;5.056;2022-12-10T04:20:18;315.13;;;42.70;;
49812;SDS011;35706;52.100;5.056;2022-12-10T04:21:38;359.50;;;44.55;;
49812;SDS011;35706;52.100;5.056;2022-12-10T04:22:58;185.88;;;37.83;;
49812;SDS011;35706;52.100;5.056;2022-12-10T04:24:18;280.20;;;43.38;;
49812;SDS011;35706;52.100;5.056;2022-12-10T04:26:57;184.05;;;38.67;;
49812;SDS011;35706;52.100;5.056;2022-12-10T04:27:59;181.07;;;40.70;;
49812;SDS011;35706;52.100;5.056;2022-12-10T04:28:59;386.73;;;44.37;;
49812;SDS011;35706;52.100;5.056;2022-12-10T04:30:00;396.37;;;46.17;;
49812;SDS011;35706;52.100;5.056;2022-12-10T04:31:00;285.03;;;42.37;;
49812;SDS011;35706;52.100;5.056;2022-12-10T04:32:01;349.00;;;42.93;;
49812;SDS011;35706;52.100;5.056;2022-12-10T04:33:01;446.43;;;46.53;;
49812;SDS011;35706;52.100;5.056;2022-12-10T04:34:02;279.00;;;42.40;;
49812;SDS011;35706;52.100;5.056;2022-12-10T04:35:02;392.07;;;44.33;;
49812;SDS011;35706;52.100;5.056;2022-12-10T04:36:03;200.48;;;38.83;;
49812;SDS011;35706;52.100;5.056;2022-12-10T04:37:04;240.43;;;39.67;;
49812;SDS011;35706;52.100;5.056;2022-12-10T04:38:05;268.90;;;40.72;;
49812;SDS011;35706;52.100;5.056;2022-12-10T04:39:05;191.60;;;38.00;;
49812;SDS011;35706;52.100;5.056;2022-12-10T04:40:05;277.23;;;39.00;;
49812;SDS011;35706;52.100;5.056;2022-12-10T04:41:06;413.77;;;43.50;;
49812;SDS011;35706;52.100;5.056;2022-12-10T04:42:15;150.40;;;36.30;;
49812;SDS011;35706;52.100;5.056;2022-12-10T04:43:16;270.90;;;39.85;;
49812;SDS011;35706;52.100;5.056;2022-12-10T04:44:17;312.13;;;41.13;;
49812;SDS011;35706;52.100;5.056;2022-12-10T04:45:18;202.77;;;38.88;;
49812;SDS011;35706;52.100;5.056;2022-12-10T04:46:19;175.73;;;37.23;;
49812;SDS011;35706;52.100;5.056;2022-12-10T04:47:20;247.40;;;38.30;;
49812;SDS011;35706;52.100;5.056;2022-12-10T04:48:20;259.47;;;40.60;;
49812;SDS011;35706;52.100;5.056;2022-12-10T04:49:21;215.77;;;36.73;;
49812;SDS011;35706;52.100;5.056;2022-12-10T04:50:22;373.52;;;40.42;;
49812;SDS011;35706;52.100;5.056;2022-12-10T04:51:22;194.23;;;36.03;;
49812;SDS011;35706;52.100;5.056;2022-12-10T04:52:22;252.03;;;37.10;;
49812;SDS011;35706;52.100;5.056;2022-12-10T04:53:23;191.70;;;37.07;;
49812;SDS011;35706;52.100;5.056;2022-12-10T04:54:23;282.77;;;37.30;;
49812;SDS011;35706;52.100;5.056;2022-12-10T04:55:24;275.55;;;37.83;;
49812;SDS011;35706;52.100;5.056;2022-12-10T04:56:24;206.60;;;34.73;;
49812;SDS011;35706;52.100;5.056;2022-12-10T04:57:25;201.60;;;34.23;;
49812;SDS011;35706;52.100;5.056;2022-12-10T04:58:25;295.87;;;37.00;;
49812;SDS011;35706;52.100;5.056;2022-12-10T04:59:30;202.13;;;33.08;;
49812;SDS011;35706;52.100;5.056;2022-12-10T05:00:30;308.50;;;35.93;;
49812;SDS011;35706;52.100;5.056;2022-12-10T05:01:31;362.47;;;40.07;;
49812;SDS011;35706;52.100;5.056;2022-12-10T05:02:31;344.47;;;36.97;;
49812;SDS011;35706;52.100;5.056;2022-12-10T05:03:32;253.50;;;35.20;;
49812;SDS011;35706;52.100;5.056;2022-12-10T05:04:33;344.80;;;37.63;;
49812;SDS011;35706;52.100;5.056;2022-12-10T05:05:34;385.73;;;38.40;;
49812;SDS011;35706;52.100;5.056;2022-12-10T05:06:35;250.30;;;33.13;;
49812;SDS011;35706;52.100;5.056;2022-12-10T05:07:35;353.77;;;38.50;;
49812;SDS011;35706;52.100;5.056;2022-12-10T05:08:36;249.00;;;34.10;;
49812;SDS011;35706;52.100;5.056;2022-12-10T05:09:38;159.68;;;34.35;;
49812;SDS011;35706;52.100;5.056;2022-12-10T05:10:38;237.47;;;36.93;;
49812;SDS011;35706;52.100;5.056;2022-12-10T05:11:38;218.33;;;36.27;;
49812;SDS011;35706;52.100;5.056;2022-12-10T05:12:39;149.20;;;34.70;;
49812;SDS011;35706;52.100;5.056;2022-12-10T05:13:40;271.80;;;38.33;;
49812;SDS011;35706;52.100;5.056;2022-12-10T05:14:40;278.37;;;37.33;;
49812;SDS011;35706;52.100;5.056;2022-12-10T05:15:41;244.80;;;38.27;;
49812;SDS011;35706;52.100;5.056;2022-12-10T05:16:41;282.27;;;38.33;;
49812;SDS011;35706;52.100;5.056;2022-12-10T05:17:42;144.50;;;34.00;;
49812;SDS011;35706;52.100;5.056;2022-12-10T05:18:42;153.33;;;35.20;;
49812;SDS011;35706;52.100;5.056;2022-12-10T05:19:43;156.57;;;36.43;;
49812;SDS011;35706;52.100;5.056;2022-12-10T05:20:43;200.50;;;37.30;;
49812;SDS011;35706;52.100;5.056;2022-12-10T05:21:44;317.23;;;41.50;;
49812;SDS011;35706;52.100;5.056;2022-12-10T05:23:03;146.57;;;34.03;;
49812;SDS011;35706;52.100;5.056;2022-12-10T05:24:22;153.68;;;31.17;;
49812;SDS011;35706;52.100;5.056;2022-12-10T05:25:22;155.90;;;33.73;;
49812;SDS011;35706;52.100;5.056;2022-12-10T05:26:23;200.23;;;32.37;;
49812;SDS011;35706;52.100;5.056;2022-12-10T05:27:23;239.70;;;33.23;;
49812;SDS011;35706;52.100;5.056;2022-12-10T05:28:24;321.43;;;37.13;;
49812;SDS011;35706;52.100;5.056;2022-12-10T05:29:25;283.67;;;32.67;;
49812;SDS011;35706;52.100;5.056;2022-12-10T05:30:25;151.73;;;28.43;;
49812;SDS011;35706;52.100;5.056;2022-12-10T05:31:27;287.37;;;31.80;;
49812;SDS011;35706;52.100;5.056;2022-12-10T05:32:29;155.50;;;28.48;;
49812;SDS011;35706;52.100;5.056;2022-12-10T05:33:29;211.90;;;29.00;;
49812;SDS011;35706;52.100;5.056;2022-12-10T05:34:30;313.23;;;34.45;;
49812;SDS011;35706;52.100;5.056;2022-12-10T05:35:30;265.33;;;30.13;;
49812;SDS011;35706;52.100;5.056;2022-12-10T05:36:31;212.67;;;30.43;;
49812;SDS011;35706;52.100;5.056;2022-12-10T05:37:31;106.37;;;27.23;;
49812;SDS011;35706;52.100;5.056;2022-12-10T05:38:32;178.70;;;30.90;;
49812;SDS011;35706;52.100;5.056;2022-12-10T05:39:33;249.53;;;33.27;;
49812;SDS011;35706;52.100;5.056;2022-12-10T05:40:34;138.27;;;29.50;;
49812;SDS011;35706;52.100;5.056;2022-12-10T05:41:36;149.63;;;29.23;;
49812;SDS011;35706;52.100;5.056;2022-12-10T05:42:38;205.05;;;30.90;;
49812;SDS011;35706;52.100;5.056;2022-12-10T05:43:39;184.80;;;31.00;;
49812;SDS011;35706;52.100;5.056;2022-12-10T05:44:39;181.93;;;31.00;;
49812;SDS011;35706;52.100;5.056;2022-12-10T05:45:39;240.67;;;32.90;;
49812;SDS011;35706;52.100;5.056;2022-12-10T05:46:40;268.93;;;33.83;;
49812;SDS011;35706;52.100;5.056;2022-12-10T05:47:40;148.43;;;30.20;;
49812;SDS011;35706;52.100;5.056;2022-12-10T05:48:41;138.47;;;30.30;;
49812;SDS011;35706;52.100;5.056;2022-12-10T05:49:41;302.83;;;32.67;;
49812;SDS011;35706;52.100;5.056;2022-12-10T05:50:41;234.60;;;31.00;;
49812;SDS011;35706;52.100;5.056;2022-12-10T05:51:42;173.13;;;31.57;;
49812;SDS011;35706;52.100;5.056;2022-12-10T05:52:42;120.60;;;28.30;;
49812;SDS011;35706;52.100;5.056;2022-12-10T05:53:43;261.90;;;32.00;;
49812;SDS011;35706;52.100;5.056;2022-12-10T05:54:43;146.27;;;28.43;;
49812;SDS011;35706;52.100;5.056;2022-12-10T05:55:44;104.93;;;27.43;;
49812;SDS011;35706;52.100;5.056;2022-12-10T05:56:44;230.37;;;31.20;;
49812;SDS011;35706;52.100;5.056;2022-12-10T05:57:44;267.67;;;32.23;;
49812;SDS011;35706;52.100;5.056;2022-12-10T05:58:45;181.20;;;27.07;;
49812;SDS011;35706;52.100;5.056;2022-12-10T05:59:47;139.13;;;25.38;;
49812;SDS011;35706;52.100;5.056;2022-12-10T06:00:47;128.23;;;26.17;;
49812;SDS011;35706;52.100;5.056;2022-12-10T06:01:48;159.20;;;26.90;;
49812;SDS011;35706;52.100;5.056;2022-12-10T06:02:48;208.33;;;27.47;;
49812;SDS011;35706;52.100;5.056;2022-12-10T06:03:49;278.37;;;28.57;;
49812;SDS011;35706;52.100;5.056;2022-12-10T06:04:52;283.45;;;27.77;;
49812;SDS011;35706;52.100;5.056;2022-12-10T06:05:53;130.40;;;25.00;;
49812;SDS011;35706;52.100;5.056;2022-12-10T06:06:53;107.57;;;24.03;;
49812;SDS011;35706;52.100;5.056;2022-12-10T06:07:54;151.40;;;25.97;;
49812;SDS011;35706;52.100;5.056;2022-12-10T06:08:54;166.07;;;26.17;;
49812;SDS011;35706;52.100;5.056;2022-12-10T06:09:55;304.98;;;29.92;;
49812;SDS011;35706;52.100;5.056;2022-12-10T06:10:56;123.43;;;24.53;;
49812;SDS011;35706;52.100;5.056;2022-12-10T06:11:58;114.30;;;26.70;;
49812;SDS011;35706;52.100;5.056;2022-12-10T06:12:58;137.67;;;27.07;;
49812;SDS011;35706;52.100;5.056;2022-12-10T06:13:58;108.70;;;25.87;;
49812;SDS011;35706;52.100;5.056;2022-12-10T06:14:59;224.80;;;28.07;;
49812;SDS011;35706;52.100;5.056;2022-12-10T06:15:59;112.70;;;25.63;;
49812;SDS011;35706;52.100;5.056;2022-12-10T06:17:04;293.58;;;30.95;;
49812;SDS011;35706;52.100;5.056;2022-12-10T06:18:04;156.07;;;27.37;;
49812;SDS011;35706;52.100;5.056;2022-12-10T06:19:05;299.47;;;31.27;;
49812;SDS011;35706;52.100;5.056;2022-12-10T06:20:05;254.17;;;30.30;;
49812;SDS011;35706;52.100;5.056;2022-12-10T06:21:10;273.98;;;30.17;;
49812;SDS011;35706;52.100;5.056;2022-12-10T06:22:13;155.98;;;29.08;;
49812;SDS011;35706;52.100;5.056;2022-12-10T06:23:13;219.43;;;29.57;;
49812;SDS011;35706;52.100;5.056;2022-12-10T06:24:14;128.73;;;26.77;;
49812;SDS011;35706;52.100;5.056;2022-12-10T06:25:14;214.13;;;30.00;;